Time;durP1;ratioP1;P1;durP2;ratioP2;P2;SDS_P1;SDS_P2;PMS_P1;PMS_P2;Temp;Humidity;BMP_temperature;BMP_pressure;BME280_temperature;BME280_humidity;BME280_pressure;Samples;Min_cycle;Max_cycle;Signal;HPM_P1;HPM_P2
2023/08/24 00:01:08;;;;;;;9.20;3.97;;;;;;;-145.18;100.00;46679.94;5031450;28;20021;-59
2023/08/24 00:03:34;;;;;;;8.23;4.30;;;;;;;-145.18;100.00;46679.94;5032310;28;20057;-60
2023/08/24 00:05:59;;;;;;;7.43;3.97;;;;;;;-145.18;100.00;46640.88;5032415;28;20120;-59
2023/08/24 00:08:24;;;;;;;8.30;4.07;;;;;;;-145.18;100.00;46640.88;5031835;28;20481;-59
2023/08/24 00:10:50;;;;;;;8.97;4.27;;;;;;;-145.18;100.00;46679.94;5032550;28;20064;-60
2023/08/24 00:13:15;;;;;;;12.00;4.57;;;;;;;-145.18;100.00;46677.97;5032080;28;20029;-60
2023/08/24 00:15:41;;;;;;;7.63;3.90;;;;;;;-145.18;100.00;46660.41;5031035;28;20084;-59
2023/08/24 00:18:07;;;;;;;7.47;4.47;;;;;;;-145.18;100.00;46660.41;5032010;28;20021;-59
2023/08/24 00:20:33;;;;;;;7.77;4.17;;;;;;;-145.18;100.00;46642.81;5032251;28;20060;-60
2023/08/24 00:22:59;;;;;;;11.90;4.27;;;;;;;-145.18;100.00;46679.94;5031911;28;20033;-60
2023/08/24 00:25:25;;;;;;;6.20;3.97;;;;;;;-145.18;100.00;46679.94;5030819;28;20378;-60
2023/08/24 00:27:53;;;;;;;6.57;4.60;;;;;;;-145.18;100.00;46640.88;5031926;28;20057;-60
2023/08/24 00:30:18;;;;;;;7.83;4.40;;;;;;;-145.18;100.00;46642.81;5031747;28;20362;-59
2023/08/24 00:32:44;;;;;;;5.23;4.43;;;;;;;-145.18;100.00;46640.88;5032149;28;20040;-60
2023/08/24 00:35:10;;;;;;;6.87;4.70;;;;;;;-145.18;100.00;46679.94;5032390;28;20026;-60
2023/08/24 00:37:36;;;;;;;6.77;4.40;;;;;;;-145.18;100.00;46679.94;5031791;28;20528;-60
2023/08/24 00:40:09;;;;;;;6.13;4.63;;;;;;;-145.18;100.00;46640.88;5031793;28;20382;-60
2023/08/24 00:42:43;;;;;;;7.60;5.00;;;;;;;-145.18;100.00;46660.41;5031929;28;20025;-60
2023/08/24 00:45:10;;;;;;;8.77;4.87;;;;;;;-145.18;100.00;46660.41;5031283;28;20464;-59
2023/08/24 00:47:42;;;;;;;9.23;4.57;;;;;;;-145.18;100.00;46660.41;5026579;28;20092;-59
2023/08/24 00:50:09;;;;;;;8.13;5.10;;;;;;;-145.18;100.00;46677.97;5028735;28;20448;-60
2023/08/24 00:52:37;;;;;;;13.07;5.13;;;;;;;-145.18;100.00;46660.41;5031615;28;20795;-60
2023/08/24 00:55:03;;;;;;;7.50;5.43;;;;;;;-145.18;100.00;46679.94;5031755;28;20519;-59
2023/08/24 00:57:28;;;;;;;9.13;5.23;;;;;;;-145.18;100.00;46677.97;5031160;28;20120;-60
2023/08/24 00:59:55;;;;;;;8.53;4.50;;;;;;;-145.18;100.00;46660.41;5031562;28;20057;-59
2023/08/24 01:02:21;;;;;;;9.37;4.47;;;;;;;-145.18;100.00;46660.41;5031978;28;20060;-60
2023/08/24 01:04:47;;;;;;;8.67;5.20;;;;;;;-145.18;100.00;46660.41;5031803;28;20104;-60
2023/08/24 01:07:13;;;;;;;14.43;6.17;;;;;;;-145.18;100.00;46660.41;5031557;28;20018;-60
2023/08/24 01:09:39;;;;;;;11.90;5.53;;;;;;;-145.18;100.00;46660.41;5030210;28;20037;-60
2023/08/24 01:12:08;;;;;;;9.60;5.90;;;;;;;-145.18;100.00;46660.41;5031605;28;20040;-59
2023/08/24 01:14:51;;;;;;;9.73;5.90;;;;;;;-145.18;100.00;46677.97;5031984;28;20037;-60
2023/08/24 01:17:23;;;;;;;6.77;5.70;;;;;;;-145.18;100.00;46660.41;5020342;28;20075;-60
2023/08/24 01:19:49;;;;;;;10.77;5.73;;;;;;;-145.18;100.00;46677.97;5031191;28;20032;-60
2023/08/24 01:22:38;;;;;;;11.80;5.60;;;;;;;-145.18;100.00;46660.41;5030403;28;20029;-59
2023/08/24 01:25:33;;;;;;;7.80;5.77;;;;;;;-145.18;100.00;46660.41;5030972;28;20069;-60
2023/08/24 01:27:59;;;;;;;6.53;5.40;;;;;;;-145.18;100.00;46660.41;5031338;28;20053;-60
2023/08/24 01:30:25;;;;;;;6.77;5.03;;;;;;;-145.18;100.00;46677.97;5031296;28;20440;-60
2023/08/24 01:32:51;;;;;;;8.67;5.43;;;;;;;-145.18;100.00;46660.41;5031225;28;20044;-60
2023/08/24 01:35:17;;;;;;;8.43;4.50;;;;;;;-145.18;100.00;46660.41;5031023;28;20033;-60
2023/08/24 01:37:42;;;;;;;13.00;5.43;;;;;;;-145.18;100.00;46660.41;5029328;28;20060;-60
2023/08/24 01:40:21;;;;;;;7.10;5.10;;;;;;;-145.18;100.00;46660.41;5030803;28;20495;-60
2023/08/24 01:42:53;;;;;;;10.13;5.67;;;;;;;-145.18;100.00;46660.41;5031011;28;20030;-60
2023/08/24 01:45:22;;;;;;;8.70;5.13;;;;;;;-145.18;100.00;46660.41;5019536;28;20105;-60
2023/08/24 01:47:48;;;;;;;8.07;5.13;;;;;;;-145.18;100.00;46660.41;5029338;28;20528;-60
2023/08/24 01:50:14;;;;;;;8.00;5.40;;;;;;;-145.18;100.00;46660.41;5031493;28;20072;-60
2023/08/24 01:52:41;;;;;;;7.93;5.50;;;;;;;-145.18;100.00;46660.41;5031213;28;20060;-60
2023/08/24 01:55:07;;;;;;;6.43;4.77;;;;;;;-145.18;100.00;46660.41;5031507;28;20109;-60
2023/08/24 01:57:33;;;;;;;8.93;5.63;;;;;;;-145.18;100.00;46660.41;5030543;28;20044;-60
2023/08/24 01:59:58;;;;;;;7.27;5.10;;;;;;;-145.18;100.00;46660.41;5031591;28;20104;-60
2023/08/24 02:02:24;;;;;;;10.07;5.07;;;;;;;-145.18;100.00;46660.41;5035028;28;20061;-60
2023/08/24 02:04:50;;;;;;;8.57;5.20;;;;;;;-145.18;100.00;46660.41;5034544;28;20040;-61
2023/08/24 02:07:16;;;;;;;13.87;5.63;;;;;;;-145.18;100.00;46660.41;5034873;28;20037;-61
2023/08/24 02:09:42;;;;;;;10.10;4.80;;;;;;;-145.18;100.00;46660.41;5049774;28;20448;-61
2023/08/24 02:12:07;;;;;;;10.93;5.30;;;;;;;-145.18;100.00;46660.41;5034620;28;20037;-60
2023/08/24 02:14:33;;;;;;;11.60;5.40;;;;;;;-145.18;100.00;46660.41;5034432;28;20079;-61
2023/08/24 02:16:58;;;;;;;8.93;5.60;;;;;;;-145.18;100.00;46660.41;5034353;28;20057;-61
2023/08/24 02:19:23;;;;;;;10.07;5.50;;;;;;;-145.18;100.00;46660.41;5034689;28;20518;-61
2023/08/24 02:21:49;;;;;;;12.43;6.07;;;;;;;-145.18;100.00;46660.41;5034425;28;20385;-61
2023/08/24 02:24:14;;;;;;;10.00;5.93;;;;;;;-145.18;100.00;46660.41;5020257;28;20033;-61
2023/08/24 02:26:40;;;;;;;12.30;5.97;;;;;;;-145.18;100.00;46660.41;5032739;28;20568;-62
2023/08/24 02:29:06;;;;;;;8.90;6.50;;;;;;;-145.18;100.00;46660.41;5034418;28;20037;-61
2023/08/24 02:31:31;;;;;;;15.23;6.93;;;;;;;-145.18;100.00;46660.41;5034555;28;20032;-61
2023/08/24 02:33:56;;;;;;;11.20;6.07;;;;;;;-145.18;100.00;46660.41;5034216;28;20029;-61
2023/08/24 02:36:22;;;;;;;10.20;6.60;;;;;;;-145.18;100.00;46660.41;5033925;28;20040;-61
2023/08/24 02:38:47;;;;;;;13.37;6.67;;;;;;;-145.18;100.00;46660.41;5032853;28;20487;-61
2023/08/24 02:41:14;;;;;;;9.83;6.10;;;;;;;-145.18;100.00;46658.44;5034245;28;20417;-60
2023/08/24 02:43:39;;;;;;;10.30;6.50;;;;;;;-145.18;100.00;46660.41;5034272;28;20116;-61
2023/08/24 02:46:09;;;;;;;10.83;6.50;;;;;;;-145.18;100.00;46660.41;5033881;28;20061;-61
2023/08/24 02:48:35;;;;;;;12.17;7.27;;;;;;;-145.18;100.00;46660.41;5034043;28;20408;-60
2023/08/24 02:51:02;;;;;;;12.87;6.43;;;;;;;-145.18;100.00;46656.50;5033708;28;20049;-60
2023/08/24 02:53:28;;;;;;;10.77;7.10;;;;;;;-145.18;100.00;46652.59;5033853;28;20090;-60
2023/08/24 02:55:55;;;;;;;12.23;7.03;;;;;;;-145.18;100.00;46658.44;5033375;28;20033;-60
2023/08/24 02:58:20;;;;;;;10.20;7.10;;;;;;;-145.18;100.00;46652.59;5033772;28;20030;-60
2023/08/24 03:00:46;;;;;;;13.50;7.77;;;;;;;-145.18;100.00;46656.50;5033333;28;20578;-60
2023/08/24 03:03:14;;;;;;;11.27;6.87;;;;;;;-145.18;100.00;46658.44;5033479;28;20025;-60
2023/08/24 03:05:40;;;;;;;14.73;7.60;;;;;;;-145.18;100.00;46654.53;5033181;28;20029;-60
2023/08/24 03:08:05;;;;;;;13.30;7.50;;;;;;;-145.18;100.00;46654.53;5032730;28;20028;-60
2023/08/24 03:10:35;;;;;;;10.13;7.40;;;;;;;-145.18;100.00;46656.50;5032743;28;20535;-60
2023/08/24 03:13:00;;;;;;;13.13;7.50;;;;;;;-145.18;100.00;46654.53;5033314;28;20060;-60
2023/08/24 03:15:25;;;;;;;12.07;8.80;;;;;;;-145.18;100.00;46660.41;5032674;28;20060;-60
2023/08/24 03:17:52;;;;;;;18.43;8.67;;;;;;;-145.18;100.00;46654.53;5032892;28;20112;-60
2023/08/24 03:20:18;;;;;;;16.30;8.43;;;;;;;-145.18;100.00;46654.53;5031876;28;20030;-60
2023/08/24 03:22:43;;;;;;;18.33;8.80;;;;;;;-145.18;100.00;46656.50;5031759;28;20474;-60
2023/08/24 03:25:09;;;;;;;15.53;8.93;;;;;;;-145.18;100.00;46652.59;5031439;28;20025;-60
2023/08/24 03:27:35;;;;;;;11.63;9.07;;;;;;;-145.18;100.00;46654.53;5032104;28;20029;-60
2023/08/24 03:30:00;;;;;;;16.33;9.37;;;;;;;-145.18;100.00;46656.50;5032559;28;20370;-60
2023/08/24 03:32:26;;;;;;;15.33;8.83;;;;;;;-145.18;100.00;46654.53;5033324;28;20021;-60
2023/08/24 03:34:58;;;;;;;20.13;9.10;;;;;;;-145.18;100.00;46652.59;5032780;28;20025;-60
2023/08/24 03:37:23;;;;;;;13.77;9.53;;;;;;;-145.18;100.00;46658.44;5032974;28;20034;-60
2023/08/24 03:39:48;;;;;;;14.00;9.43;;;;;;;-145.18;100.00;46652.59;5032152;28;20116;-60
2023/08/24 03:42:14;;;;;;;16.73;9.47;;;;;;;-145.18;100.00;46654.53;5032546;28;20112;-60
2023/08/24 03:44:39;;;;;;;16.63;9.40;;;;;;;-145.18;100.00;46654.53;5031339;28;20401;-60
2023/08/24 03:47:05;;;;;;;20.27;9.30;;;;;;;-145.18;100.00;46652.59;5032739;28;20025;-64
2023/08/24 03:49:30;;;;;;;14.17;9.27;;;;;;;-145.18;100.00;46650.63;5031029;28;20087;-64
2023/08/24 03:51:55;;;;;;;15.47;9.30;;;;;;;-145.18;100.00;46652.59;5031752;28;20139;-64
2023/08/24 03:54:21;;;;;;;13.87;9.77;;;;;;;-145.18;100.00;46654.53;5019579;28;20038;-64
2023/08/24 03:56:46;;;;;;;17.83;10.13;;;;;;;-145.18;100.00;46654.53;5029398;28;20052;-64
2023/08/24 03:59:12;;;;;;;16.63;11.43;;;;;;;-145.18;100.00;46650.63;5035792;28;20503;-64
2023/08/24 04:01:37;;;;;;;18.43;10.63;;;;;;;-145.18;100.00;46654.53;5025688;28;20029;-64
2023/08/24 04:04:03;;;;;;;17.93;11.73;;;;;;;-145.18;100.00;46652.59;5030902;28;20550;-64
2023/08/24 04:06:28;;;;;;;19.47;11.33;;;;;;;-145.18;100.00;46640.88;5047111;28;20029;-64
2023/08/24 04:08:53;;;;;;;20.43;11.73;;;;;;;-145.18;100.00;46654.53;5032055;28;20116;-64
2023/08/24 04:11:19;;;;;;;21.43;12.53;;;;;;;-145.18;100.00;46652.59;5036593;28;20083;-64
2023/08/24 04:13:44;;;;;;;20.93;11.83;;;;;;;-145.18;100.00;46650.63;5033053;28;20033;-64
2023/08/24 04:16:09;;;;;;;17.17;11.97;;;;;;;-145.18;100.00;46652.59;5046432;28;20600;-64
2023/08/24 04:18:35;;;;;;;21.03;11.80;;;;;;;-145.18;100.00;46650.63;5031834;28;20037;-64
2023/08/24 04:21:00;;;;;;;22.93;11.03;;;;;;;-145.18;100.00;46650.63;5030067;28;20027;-65
2023/08/24 04:23:28;;;;;;;19.23;11.47;;;;;;;-145.18;100.00;46652.59;5032169;28;20481;-65
2023/08/24 04:25:54;;;;;;;19.47;11.27;;;;;;;-145.18;100.00;46654.53;5032157;28;20021;-64
2023/08/24 04:28:20;;;;;;;14.90;10.70;;;;;;;-145.18;100.00;46652.59;5031970;28;20026;-64
2023/08/24 04:30:58;;;;;;;17.90;11.40;;;;;;;-145.18;100.00;46656.50;5032180;28;20041;-64
2023/08/24 04:33:23;;;;;;;18.97;11.40;;;;;;;-145.18;100.00;46654.53;5046820;28;20040;-64
2023/08/24 04:35:50;;;;;;;16.00;11.10;;;;;;;-145.18;100.00;46656.50;5031526;28;20034;-64
2023/08/24 04:38:15;;;;;;;20.13;10.00;;;;;;;-145.18;100.00;46658.44;5039529;28;20508;-64
2023/08/24 04:40:51;;;;;;;22.03;13.20;;;;;;;-145.18;100.00;46658.44;5032369;28;20018;-64
2023/08/24 04:43:17;;;;;;;15.90;10.70;;;;;;;-145.18;100.00;46658.44;5037069;28;20056;-64
2023/08/24 04:45:42;;;;;;;16.80;10.93;;;;;;;-145.18;100.00;46660.41;5031678;28;20044;-64
2023/08/24 04:48:08;;;;;;;18.13;11.20;;;;;;;-145.18;100.00;46656.50;5039648;28;20481;-64
2023/08/24 04:50:33;;;;;;;17.90;11.10;;;;;;;-145.18;100.00;46656.50;5031424;28;20116;-64
2023/08/24 04:52:58;;;;;;;16.47;10.27;;;;;;;-145.18;100.00;46656.50;5031909;28;20472;-64
2023/08/24 04:55:24;;;;;;;17.77;11.67;;;;;;;-145.18;100.00;46656.50;5046453;28;20041;-64
2023/08/24 04:57:49;;;;;;;17.97;11.50;;;;;;;-145.18;100.00;46660.41;5029046;28;20040;-60
2023/08/24 05:00:16;;;;;;;16.23;10.90;;;;;;;-145.18;100.00;46654.53;5028764;28;20073;-60
2023/08/24 05:02:42;;;;;;;22.30;11.17;;;;;;;-145.18;100.00;46658.44;5029540;28;20032;-60
2023/08/24 05:05:10;;;;;;;18.73;10.80;;;;;;;-145.18;100.00;46656.50;5030790;28;20032;-60
2023/08/24 05:07:36;;;;;;;17.47;11.17;;;;;;;-145.18;100.00;46654.53;5029285;28;20025;-60
2023/08/24 05:10:03;;;;;;;23.17;11.23;;;;;;;-145.18;100.00;46654.53;5027867;28;20018;-60
2023/08/24 05:12:29;;;;;;;16.80;11.60;;;;;;;-145.18;100.00;46658.44;5024587;28;20056;-60
2023/08/24 05:14:54;;;;;;;16.80;11.97;;;;;;;-145.18;100.00;46658.44;5029515;28;20045;-60
2023/08/24 05:17:21;;;;;;;21.43;11.77;;;;;;;-145.18;100.00;46658.44;5028820;28;20557;-60
2023/08/24 05:19:46;;;;;;;20.93;12.00;;;;;;;-145.18;100.00;46660.41;5021323;28;20045;-61
2023/08/24 05:22:11;;;;;;;18.27;11.67;;;;;;;-145.18;100.00;46658.44;5027693;28;20018;-61
2023/08/24 05:24:37;;;;;;;18.37;12.23;;;;;;;-145.18;100.00;46656.50;5028495;28;20104;-61
2023/08/24 05:27:02;;;;;;;18.20;11.80;;;;;;;-145.18;100.00;46660.41;5029783;28;20044;-60
2023/08/24 05:29:28;;;;;;;20.00;11.90;;;;;;;-145.18;100.00;46660.41;5024427;28;20518;-61
2023/08/24 05:31:53;;;;;;;16.93;11.47;;;;;;;-145.18;100.00;46658.44;5029082;28;20021;-60
2023/08/24 05:34:18;;;;;;;18.83;12.20;;;;;;;-145.18;100.00;46660.41;5029609;28;20060;-61
2023/08/24 05:36:44;;;;;;;22.37;12.70;;;;;;;-145.18;100.00;46658.44;5022986;28;20038;-61
2023/08/24 05:39:10;;;;;;;19.43;12.37;;;;;;;-145.18;100.00;46660.41;5020362;28;20065;-60
2023/08/24 05:41:36;;;;;;;21.43;12.70;;;;;;;-145.18;100.00;46660.41;5024888;28;20033;-61
2023/08/24 05:44:02;;;;;;;21.70;14.83;;;;;;;-145.18;100.00;46656.50;5034091;28;20021;-60
2023/08/24 05:46:28;;;;;;;21.50;12.97;;;;;;;-145.18;100.00;46660.41;5034377;28;20048;-60
2023/08/24 05:48:53;;;;;;;24.67;12.70;;;;;;;-145.18;100.00;46658.44;5034590;28;20030;-60
2023/08/24 05:51:19;;;;;;;17.53;12.07;;;;;;;-145.18;100.00;46660.41;5033130;28;20080;-61
2023/08/24 05:53:44;;;;;;;22.77;13.30;;;;;;;-145.18;100.00;46660.41;5035072;28;20029;-60
2023/08/24 05:56:09;;;;;;;19.90;13.40;;;;;;;-145.18;100.00;46658.44;5034624;28;20029;-60
2023/08/24 05:58:35;;;;;;;22.60;14.37;;;;;;;-145.18;100.00;46658.44;5034808;28;20069;-61
2023/08/24 06:01:00;;;;;;;23.67;13.83;;;;;;;-145.18;100.00;46660.41;5035191;28;20034;-60
2023/08/24 06:03:26;;;;;;;21.70;13.57;;;;;;;-145.18;100.00;46656.50;5030563;28;20556;-60
2023/08/24 06:05:52;;;;;;;21.93;12.93;;;;;;;-145.18;100.00;46660.41;5034636;28;20033;-60
2023/08/24 06:08:17;;;;;;;23.57;14.23;;;;;;;-145.18;100.00;46660.41;5033814;28;20083;-61
2023/08/24 06:10:43;;;;;;;27.13;14.13;;;;;;;-145.18;100.00;46660.41;5034658;28;20030;-61
2023/08/24 06:13:08;;;;;;;22.30;13.57;;;;;;;-145.18;100.00;46660.41;5034506;28;20033;-61
2023/08/24 06:15:34;;;;;;;25.80;14.27;;;;;;;-145.18;100.00;46660.41;5032911;28;20037;-61
2023/08/24 06:17:59;;;;;;;23.20;13.90;;;;;;;-145.18;100.00;46660.41;5034305;28;20053;-61
2023/08/24 06:20:25;;;;;;;25.67;13.93;;;;;;;-145.18;100.00;46658.44;5034198;28;20027;-60
2023/08/24 06:22:50;;;;;;;21.33;14.20;;;;;;;-145.18;100.00;46660.41;5034253;28;20029;-61
2023/08/24 06:25:16;;;;;;;25.20;14.30;;;;;;;-145.18;100.00;46660.41;5034068;28;20024;-61
2023/08/24 06:27:41;;;;;;;21.70;14.33;;;;;;;-145.18;100.00;46627.19;5034007;28;20024;-61
2023/08/24 06:30:07;;;;;;;22.50;14.37;;;;;;;-145.18;100.00;46625.22;5033986;28;20030;-60
2023/08/24 06:32:33;;;;;;;20.07;14.17;;;;;;;-145.18;100.00;46627.19;5034415;28;20026;-61
2023/08/24 06:34:59;;;;;;;21.33;14.57;;;;;;;-145.18;100.00;46631.09;5033687;28;20029;-61
2023/08/24 06:37:25;;;;;;;23.63;13.97;;;;;;;-145.18;100.00;46627.19;5030666;28;20025;-60
2023/08/24 06:39:50;;;;;;;21.50;14.20;;;;;;;-145.18;100.00;46629.13;5031674;28;20103;-60
2023/08/24 06:42:15;;;;;;;20.10;13.30;;;;;;;-145.18;100.00;46627.19;5033310;28;20556;-60
2023/08/24 06:44:41;;;;;;;23.77;14.50;;;;;;;-145.18;100.00;46629.13;5029988;28;20021;-60
2023/08/24 06:47:06;;;;;;;19.63;13.90;;;;;;;-145.18;100.00;46631.09;5034324;28;20104;-61
2023/08/24 06:49:31;;;;;;;21.13;15.27;;;;;;;-145.18;100.00;46625.22;5035252;28;20485;-61
2023/08/24 06:51:57;;;;;;;24.67;15.13;;;;;;;-145.18;100.00;46631.09;5034650;28;20077;-61
2023/08/24 06:54:22;;;;;;;23.03;15.20;;;;;;;-145.18;100.00;46631.09;5037573;28;20053;-61
2023/08/24 06:56:48;;;;;;;25.10;15.87;;;;;;;-145.18;100.00;46627.19;5033321;28;20039;-60
2023/08/24 06:59:13;;;;;;;22.17;15.83;;;;;;;-145.18;100.00;46633.06;5033471;28;20037;-61
2023/08/24 07:01:40;;;;;;;22.27;15.53;;;;;;;-145.18;100.00;46633.06;5024836;28;20025;-61
2023/08/24 07:04:06;;;;;;;26.03;15.13;;;;;;;-145.18;100.00;46633.06;5033103;28;20025;-60
2023/08/24 07:06:34;;;;;;;22.80;14.67;;;;;;;-145.18;100.00;46629.13;5039722;28;20103;-61
2023/08/24 07:08:59;;;;;;;23.10;14.30;;;;;;;-145.18;100.00;46633.06;5031152;28;20034;-61
2023/08/24 07:11:25;;;;;;;26.67;14.90;;;;;;;-145.18;100.00;46633.06;5033083;28;20036;-61
2023/08/24 07:13:53;;;;;;;25.23;14.87;;;;;;;-145.18;100.00;46638.91;5033007;28;20033;-61
2023/08/24 07:16:19;;;;;;;23.10;14.93;;;;;;;-145.18;100.00;46644.78;5032433;28;20083;-65
2023/08/24 07:18:44;;;;;;;20.73;14.23;;;;;;;-145.18;100.00;46640.88;5032968;28;20045;-65
2023/08/24 07:21:09;;;;;;;21.40;14.87;;;;;;;-145.18;100.00;46638.91;5032710;28;20079;-65
2023/08/24 07:23:35;;;;;;;24.07;15.33;;;;;;;-145.18;100.00;46638.91;5035682;28;20037;-65
2023/08/24 07:26:00;;;;;;;21.17;13.63;;;;;;;-145.18;100.00;46638.91;5039048;28;20473;-65
2023/08/24 07:28:25;;;;;;;23.13;13.87;;;;;;;-145.18;100.00;46648.69;5029452;28;20033;-65
2023/08/24 07:30:55;;;;;;;20.87;14.37;;;;;;;-145.18;100.00;46642.81;5036260;28;20029;-65
2023/08/24 07:33:21;;;;;;;20.70;13.73;;;;;;;-145.18;100.00;46650.63;5015487;28;20033;-65
2023/08/24 07:35:47;;;;;;;20.53;14.13;;;;;;;-145.18;100.00;46648.69;5032308;28;20021;-65
2023/08/24 07:38:12;;;;;;;25.47;13.53;;;;;;;-145.18;100.00;46650.63;5036067;28;20025;-65
2023/08/24 07:40:38;;;;;;;24.27;13.67;;;;;;;-145.18;100.00;46652.59;5031058;28;20083;-65
2023/08/24 07:43:03;;;;;;;20.70;13.83;;;;;;;-145.18;100.00;46646.72;5032131;28;20048;-65
2023/08/24 07:45:29;;;;;;;18.27;13.13;;;;;;;-145.18;100.00;46652.59;5030350;28;20120;-65
2023/08/24 07:47:55;;;;;;;18.50;14.37;;;;;;;-145.18;100.00;46652.59;5029413;28;20079;-65
2023/08/24 07:50:22;;;;;;;23.03;13.90;;;;;;;-145.18;100.00;46656.50;5023205;28;20045;-65
2023/08/24 07:52:47;;;;;;;20.73;15.20;;;;;;;-145.18;100.00;46656.50;5029313;28;20057;-65
2023/08/24 07:55:13;;;;;;;22.97;14.53;;;;;;;-145.18;100.00;46652.59;5047543;28;20032;-66
2023/08/24 07:57:38;;;;;;;21.93;13.10;;;;;;;-145.18;100.00;46650.63;5031574;28;20497;-65
2023/08/24 08:00:05;;;;;;;22.27;14.20;;;;;;;-145.18;100.00;46652.59;5032490;28;20091;-65
2023/08/24 08:02:32;;;;;;;23.73;14.70;;;;;;;-145.18;100.00;46652.59;5032098;28;20116;-66
2023/08/24 08:04:58;;;;;;;25.30;15.03;;;;;;;-145.18;100.00;46652.59;5028663;28;20064;-65
2023/08/24 08:07:25;;;;;;;24.07;14.03;;;;;;;-145.18;100.00;46654.53;5023051;28;20039;-65
2023/08/24 08:09:51;;;;;;;24.97;13.70;;;;;;;-145.18;100.00;46662.34;5031763;28;20385;-66
2023/08/24 08:12:16;;;;;;;26.23;15.70;;;;;;;-145.18;100.00;46664.31;5030155;28;20106;-66
2023/08/24 08:14:41;;;;;;;24.87;15.37;;;;;;;-145.18;100.00;46662.34;5032186;28;20041;-65
2023/08/24 08:17:07;;;;;;;23.70;14.87;;;;;;;-145.18;100.00;46662.34;5031841;28;20037;-65
2023/08/24 08:19:35;;;;;;;24.53;14.93;;;;;;;-145.18;100.00;46664.31;5033227;28;20029;-65
2023/08/24 08:22:00;;;;;;;20.43;13.77;;;;;;;-145.18;100.00;46660.41;5036339;28;20025;-65
2023/08/24 08:24:25;;;;;;;20.13;13.60;;;;;;;-145.18;100.00;46662.34;5032146;28;20056;-65
2023/08/24 08:26:51;;;;;;;23.70;14.17;;;;;;;-145.18;100.00;46658.44;5031749;28;20554;-60
2023/08/24 08:29:17;;;;;;;18.47;13.33;;;;;;;-145.18;100.00;46662.34;5046522;28;20120;-60
2023/08/24 08:31:42;;;;;;;20.67;13.30;;;;;;;-145.18;100.00;46662.34;5031803;28;20072;-60
2023/08/24 08:34:07;;;;;;;18.73;13.20;;;;;;;-145.18;100.00;46660.41;5031438;28;20104;-60
2023/08/24 08:36:33;;;;;;;18.50;13.07;;;;;;;-145.18;100.00;46666.25;5031219;28;20021;-60
2023/08/24 08:38:58;;;;;;;20.20;13.65;;;;;;;-145.18;100.00;46664.31;5030360;28;20128;-60
2023/08/24 08:41:30;;;;;;;23.50;14.25;;;;;;;-145.18;100.00;46670.16;5029379;28;20112;-60
2023/08/24 08:43:55;;;;;;;18.07;13.37;;;;;;;-145.18;100.00;46668.22;5037305;28;20104;-60
2023/08/24 08:46:21;;;;;;;23.42;13.88;;;;;;;-145.18;100.00;46668.22;5034827;28;20124;-60
2023/08/24 08:48:50;;;;;;;17.45;13.90;;;;;;;-145.18;100.00;46666.25;5031389;28;20408;-60
2023/08/24 08:51:17;;;;;;;22.23;13.93;;;;;;;-145.18;100.00;46666.25;5030983;28;20061;-60
2023/08/24 08:53:43;;;;;;;21.98;13.27;;;;;;;-145.18;100.00;46664.31;5031593;28;20060;-60
2023/08/24 08:56:08;;;;;;;19.50;13.65;;;;;;;-145.18;100.00;46668.22;5030777;28;20029;-60
2023/08/24 08:58:36;;;;;;;20.02;13.27;;;;;;;-145.18;100.00;46668.22;5031439;28;20033;-60
2023/08/24 09:01:04;;;;;;;21.85;13.40;;;;;;;-145.18;100.00;46670.16;5031272;28;20048;-60
2023/08/24 09:03:31;;;;;;;17.63;13.02;;;;;;;-145.18;100.00;46668.22;5030993;28;20109;-60
2023/08/24 09:05:57;;;;;;;18.83;12.43;;;;;;;-145.18;100.00;46668.22;5031130;28;20128;-60
2023/08/24 09:08:23;;;;;;;20.65;13.98;;;;;;;-145.18;100.00;46672.13;5050442;28;20045;-61
2023/08/24 09:10:49;;;;;;;18.50;13.18;;;;;;;-145.18;100.00;46672.13;5034960;28;20116;-60
2023/08/24 09:13:14;;;;;;;15.25;11.55;;;;;;;-145.18;100.00;46676.03;5035064;28;20108;-60
2023/08/24 09:15:40;;;;;;;17.70;12.95;;;;;;;-145.18;100.00;46674.06;5035048;28;20091;-61
2023/08/24 09:18:05;;;;;;;18.13;12.52;;;;;;;-145.18;100.00;46674.06;5035254;28;20108;-60
2023/08/24 09:20:31;;;;;;;18.05;12.57;;;;;;;-145.18;100.00;46672.13;5033738;28;20132;-60
2023/08/24 09:22:58;;;;;;;15.90;11.65;;;;;;;-145.18;100.00;46674.06;5034908;28;20075;-60
2023/08/24 09:25:26;;;;;;;20.75;12.63;;;;;;;-145.18;100.00;46672.13;5034623;28;20515;-60
2023/08/24 09:28:06;;;;;;;15.68;11.20;;;;;;;-145.18;100.00;46672.13;5034969;28;20025;-60
2023/08/24 09:30:34;;;;;;;24.30;12.80;;;;;;;-145.18;100.00;46676.03;5034608;28;20057;-60
2023/08/24 09:33:03;;;;;;;17.15;11.90;;;;;;;-145.18;100.00;46674.06;5034888;28;20040;-60
2023/08/24 09:35:34;;;;;;;19.40;11.77;;;;;;;-145.18;100.00;46672.13;5033126;28;20393;-60
2023/08/24 09:38:00;;;;;;;17.23;11.65;;;;;;;-145.18;100.00;46676.03;5034815;28;20028;-65
2023/08/24 09:40:26;;;;;;;16.42;11.75;;;;;;;-145.18;100.00;46672.13;5034380;28;20393;-65
2023/08/24 09:42:51;;;;;;;18.85;13.45;;;;;;;-145.18;100.00;46672.13;5049544;28;20107;-65
2023/08/24 09:45:16;;;;;;;16.33;12.32;;;;;;;-145.18;100.00;46676.03;5024853;28;20072;-65
2023/08/24 09:47:49;;;;;;;20.85;13.05;;;;;;;-145.18;100.00;46676.03;5034422;28;20511;-65
2023/08/24 09:50:14;;;;;;;19.95;12.60;;;;;;;-145.18;100.00;46677.97;5035921;28;20476;-65
2023/08/24 09:52:42;;;;;;;18.52;12.95;;;;;;;-145.18;100.00;46674.06;5033980;28;20053;-65
2023/08/24 09:55:09;;;;;;;17.55;12.55;;;;;;;-145.18;100.00;46664.31;5026877;28;20454;-65
2023/08/24 09:57:38;;;;;;;17.10;13.00;;;;;;;-145.18;100.00;46668.22;5034609;28;20522;-65
2023/08/24 10:00:11;;;;;;;24.15;13.40;;;;;;;-145.18;100.00;46666.25;5034536;28;20021;-65
2023/08/24 10:02:45;;;;;;;19.58;13.55;;;;;;;-145.18;100.00;46662.34;5033319;28;20104;-64
2023/08/24 10:05:17;;;;;;;19.20;13.23;;;;;;;-145.18;100.00;46658.44;5034533;28;20025;-65
2023/08/24 10:07:43;;;;;;;17.67;13.23;;;;;;;-145.18;100.00;46658.44;5031641;28;20460;-65
2023/08/24 10:10:13;;;;;;;17.15;12.32;;;;;;;-145.18;100.00;46662.34;5033735;28;20053;-65
2023/08/24 10:12:43;;;;;;;19.13;13.32;;;;;;;-145.18;100.00;46662.34;5032341;28;20018;-65
2023/08/24 10:15:11;;;;;;;16.23;12.77;;;;;;;-145.18;100.00;46660.41;5034311;28;20108;-65
2023/08/24 10:17:38;;;;;;;19.55;12.48;;;;;;;-145.18;100.00;46662.34;5033113;28;20037;-65
2023/08/24 10:20:08;;;;;;;20.25;13.40;;;;;;;-145.18;100.00;46660.41;5033248;28;20049;-65
2023/08/24 10:22:35;;;;;;;16.58;12.32;;;;;;;-145.18;100.00;46658.44;5025129;28;20477;-64
2023/08/24 10:25:04;;;;;;;18.95;12.82;;;;;;;-145.18;100.00;46660.41;5033924;28;20485;-65
2023/08/24 10:27:30;;;;;;;18.65;13.88;;;;;;;-145.18;100.00;46654.53;5033829;28;20107;-65
2023/08/24 10:29:57;;;;;;;23.35;14.85;;;;;;;-145.18;100.00;46658.44;5033498;28;20631;-65
2023/08/24 10:32:24;;;;;;;21.02;14.75;;;;;;;-145.18;100.00;46652.59;5033103;28;20037;-65
2023/08/24 10:34:50;;;;;;;19.92;14.27;;;;;;;-145.18;100.00;46650.63;5033435;28;20022;-65
2023/08/24 10:37:16;;;;;;;18.75;14.07;;;;;;;-145.18;100.00;46648.69;5033356;28;20025;-65
2023/08/24 10:39:45;;;;;;;19.23;14.60;;;;;;;-145.18;100.00;46648.69;5032404;28;20029;-65
2023/08/24 10:42:12;;;;;;;19.20;13.43;;;;;;;-145.18;100.00;46652.59;5033760;28;20098;-65
2023/08/24 10:44:39;;;;;;;20.58;13.60;;;;;;;-145.18;100.00;46652.59;5033226;28;20018;-65
2023/08/24 10:47:17;;;;;;;17.27;13.30;;;;;;;-145.18;100.00;46654.53;5032103;28;20478;-60
2023/08/24 10:49:44;;;;;;;18.45;13.40;;;;;;;-145.18;100.00;46658.44;5032667;28;20566;-60
2023/08/24 10:52:20;;;;;;;21.33;13.55;;;;;;;-145.18;100.00;46666.25;5025503;28;20129;-60
2023/08/24 10:54:50;;;;;;;21.33;13.10;;;;;;;-145.18;100.00;46666.25;5031581;28;20505;-60